Time;durP1;ratioP1;P1;durP2;ratioP2;P2;SDS_P1;SDS_P2;PMS_P1;PMS_P2;Temp;Humidity;BMP_temperature;BMP_pressure;BME280_temperature;BME280_humidity;BME280_pressure;Samples;Min_cycle;Max_cycle;Signal;HPM_P1;HPM_P2
2021/10/24 00:00:19;;;;;;;15.63;8.68;;;5.10;99.90;;;;;;5049703;28;20446;-60
2021/10/24 00:02:46;;;;;;;15.90;8.50;;;5.00;99.90;;;;;;5047544;28;20418;-58
2021/10/24 00:05:13;;;;;;;16.25;9.05;;;5.00;99.90;;;;;;5049249;28;20453;-59
2021/10/24 00:07:39;;;;;;;21.00;10.30;;;5.00;99.90;;;;;;5048962;28;20753;-58
2021/10/24 00:10:05;;;;;;;19.30;10.68;;;5.00;99.90;;;;;;5049209;28;20421;-59
2021/10/24 00:12:31;;;;;;;20.08;10.70;;;5.00;99.90;;;;;;5049819;28;20417;-60
2021/10/24 00:14:56;;;;;;;15.88;9.68;;;5.00;99.90;;;;;;5048765;28;21175;-59
2021/10/24 00:17:22;;;;;;;15.40;9.27;;;5.00;99.90;;;;;;5049844;28;20393;-60
2021/10/24 00:19:48;;;;;;;17.58;9.70;;;5.00;99.90;;;;;;5048852;28;20417;-58
2021/10/24 00:22:13;;;;;;;15.93;9.43;;;4.90;99.90;;;;;;5049485;28;20381;-58
2021/10/24 00:24:39;;;;;;;15.75;9.93;;;4.90;99.90;;;;;;5047430;28;20382;-57
2021/10/24 00:27:05;;;;;;;15.87;9.87;;;5.50;99.90;;;;;;5049124;28;20839;-59
2021/10/24 00:29:30;;;;;;;20.15;11.23;;;5.10;99.90;;;;;;5049401;28;20431;-58
2021/10/24 00:31:56;;;;;;;17.47;9.63;;;5.20;99.90;;;;;;5048518;28;20409;-58
2021/10/24 00:34:22;;;;;;;19.33;10.00;;;4.90;99.90;;;;;;5049274;28;20432;-58
2021/10/24 00:36:47;;;;;;;19.35;10.60;;;4.90;99.90;;;;;;5048654;28;20394;-58
2021/10/24 00:39:13;;;;;;;18.40;10.33;;;4.90;99.90;;;;;;5049201;28;20389;-58
2021/10/24 00:41:39;;;;;;;16.92;9.43;;;4.90;99.90;;;;;;5048642;28;20776;-57
2021/10/24 00:44:23;;;;;;;16.03;9.30;;;4.80;99.90;;;;;;5049305;28;20390;-58
2021/10/24 00:46:51;;;;;;;19.20;9.82;;;4.80;99.90;;;;;;5048528;28;20439;-58
2021/10/24 00:49:17;;;;;;;19.02;10.23;;;4.80;99.90;;;;;;5049235;28;20385;-58
2021/10/24 00:51:43;;;;;;;17.60;10.10;;;4.80;99.90;;;;;;5048587;28;20412;-58
2021/10/24 00:54:12;;;;;;;20.83;10.00;;;4.80;99.90;;;;;;5048973;28;20883;-58
2021/10/24 00:56:40;;;;;;;16.83;9.30;;;4.80;99.90;;;;;;5047362;28;20424;-57
2021/10/24 00:59:08;;;;;;;16.15;9.23;;;4.80;99.90;;;;;;5049486;28;20377;-58
2021/10/24 01:01:34;;;;;;;19.08;10.15;;;4.80;99.90;;;;;;5049024;28;20401;-60
2021/10/24 01:04:00;;;;;;;16.10;9.30;;;4.70;99.90;;;;;;5047097;28;20408;-59
2021/10/24 01:06:26;;;;;;;19.90;9.60;;;5.20;99.90;;;;;;5047930;28;20378;-59
2021/10/24 01:08:51;;;;;;;16.42;9.38;;;4.50;99.90;;;;;;5050651;28;20515;-58
2021/10/24 01:11:17;;;;;;;15.50;9.27;;;4.70;99.90;;;;;;5052558;28;20776;-59
2021/10/24 01:13:43;;;;;;;14.27;8.85;;;4.30;99.90;;;;;;5050644;28;20394;-59
2021/10/24 01:16:11;;;;;;;18.83;9.77;;;4.30;99.90;;;;;;5052658;28;20443;-58
2021/10/24 01:18:37;;;;;;;16.60;9.75;;;4.30;99.90;;;;;;5052425;28;20381;-58
2021/10/24 01:21:02;;;;;;;18.20;9.50;;;4.40;99.90;;;;;;5052281;28;20440;-58
2021/10/24 01:23:28;;;;;;;18.85;9.80;;;4.30;99.90;;;;;;5052437;28;20447;-60
2021/10/24 01:25:54;;;;;;;15.60;9.30;;;4.30;99.90;;;;;;5051686;28;20503;-60
2021/10/24 01:28:19;;;;;;;15.50;8.57;;;4.10;99.90;;;;;;5052409;28;20386;-60
2021/10/24 01:30:45;;;;;;;17.03;9.50;;;4.20;99.90;;;;;;5051931;28;20413;-60
2021/10/24 01:33:12;;;;;;;18.65;9.65;;;5.20;99.90;;;;;;5052242;28;20421;-60
2021/10/24 01:35:58;;;;;;;16.60;9.00;;;4.10;99.90;;;;;;5051870;28;20421;-59
2021/10/24 01:38:26;;;;;;;17.40;10.30;;;4.10;99.90;;;;;;5047599;28;20476;-60
2021/10/24 01:40:52;;;;;;;17.02;10.23;;;4.00;99.90;;;;;;5051437;28;20436;-60
2021/10/24 01:43:19;;;;;;;20.08;10.30;;;3.90;99.90;;;;;;5052286;28;20397;-60
2021/10/24 01:45:45;;;;;;;20.60;9.48;;;3.90;99.90;;;;;;5051538;28;20377;-60
2021/10/24 01:48:11;;;;;;;15.97;9.33;;;3.90;99.90;;;;;;5051911;28;20861;-60
2021/10/24 01:50:37;;;;;;;17.27;8.77;;;3.80;99.90;;;;;;5051520;28;20451;-59
2021/10/24 01:53:03;;;;;;;18.30;9.30;;;3.90;99.90;;;;;;5052167;28;20488;-60
2021/10/24 01:55:33;;;;;;;17.87;9.40;;;4.80;99.90;;;;;;5052077;28;20389;-60
2021/10/24 01:57:59;;;;;;;16.85;9.13;;;3.90;99.90;;;;;;5051258;28;20373;-60
2021/10/24 02:00:25;;;;;;;17.63;9.93;;;3.90;99.90;;;;;;5051945;28;20842;-60
2021/10/24 02:02:51;;;;;;;19.20;8.68;;;3.90;99.90;;;;;;5051001;28;20760;-60
2021/10/24 02:05:17;;;;;;;14.40;8.33;;;3.90;99.90;;;;;;5052003;28;20911;-60
2021/10/24 02:07:43;;;;;;;15.82;8.73;;;3.90;99.90;;;;;;5051197;28;20397;-60
2021/10/24 02:10:11;;;;;;;15.73;9.45;;;3.80;99.90;;;;;;5051800;28;20424;-60
2021/10/24 02:12:38;;;;;;;20.35;8.82;;;3.70;99.90;;;;;;5049805;28;20421;-59
2021/10/24 02:15:06;;;;;;;18.50;9.40;;;3.50;99.90;;;;;;5051569;28;20378;-60
2021/10/24 02:17:32;;;;;;;17.75;9.55;;;3.60;99.90;;;;;;5050349;28;20774;-60
2021/10/24 02:19:58;;;;;;;15.32;8.77;;;3.60;99.90;;;;;;5049597;28;20406;-59
2021/10/24 02:22:24;;;;;;;18.55;9.90;;;3.50;99.90;;;;;;5051170;28;20381;-59
2021/10/24 02:24:50;;;;;;;19.83;9.40;;;4.30;99.90;;;;;;5050809;28;20452;-60
2021/10/24 02:27:16;;;;;;;18.40;10.07;;;3.80;99.90;;;;;;5051154;28;20381;-60
2021/10/24 02:29:43;;;;;;;16.80;9.90;;;3.50;99.90;;;;;;5050585;28;20405;-59
2021/10/24 02:32:09;;;;;;;17.65;11.18;;;3.50;99.90;;;;;;5051322;28;20483;-60
2021/10/24 02:34:35;;;;;;;17.60;9.57;;;3.60;99.90;;;;;;5051515;28;20394;-59
2021/10/24 02:37:00;;;;;;;16.55;9.50;;;3.60;99.90;;;;;;5050213;28;20400;-60
2021/10/24 02:39:26;;;;;;;17.00;9.73;;;3.60;99.90;;;;;;5051581;28;20385;-59
2021/10/24 02:41:53;;;;;;;18.67;9.73;;;3.60;99.90;;;;;;5050618;28;20385;-59
2021/10/24 02:44:20;;;;;;;17.75;9.80;;;3.60;99.90;;;;;;5051022;28;20378;-59
2021/10/24 02:46:46;;;;;;;17.55;8.93;;;3.50;99.90;;;;;;5050529;28;20385;-59
2021/10/24 02:49:12;;;;;;;18.33;9.32;;;4.00;99.90;;;;;;5051160;28;20412;-60
2021/10/24 02:51:38;;;;;;;17.65;9.80;;;3.40;99.90;;;;;;5050737;28;20413;-59
2021/10/24 02:54:04;;;;;;;17.10;9.45;;;3.30;99.90;;;;;;5049182;28;20444;-59
2021/10/24 02:56:29;;;;;;;17.00;9.70;;;3.30;99.90;;;;;;5050593;28;20390;-60
2021/10/24 02:58:55;;;;;;;18.35;9.93;;;3.40;99.90;;;;;;5050282;28;20413;-59
2021/10/24 03:01:21;;;;;;;16.83;9.60;;;3.40;99.90;;;;;;5050706;28;20849;-59
2021/10/24 03:03:46;;;;;;;21.17;10.00;;;4.90;99.90;;;;;;5050015;28;20461;-59
2021/10/24 03:06:12;;;;;;;17.70;9.73;;;3.20;99.90;;;;;;5050944;28;20377;-59
2021/10/24 03:08:38;;;;;;;18.80;9.37;;;3.10;99.90;;;;;;5050127;28;20393;-59
2021/10/24 03:11:03;;;;;;;16.48;9.45;;;3.20;99.90;;;;;;5050108;28;20456;-59
2021/10/24 03:13:29;;;;;;;18.92;10.00;;;4.40;99.90;;;;;;5050913;28;20771;-60
2021/10/24 03:15:55;;;;;;;20.20;10.30;;;3.20;99.90;;;;;;5049767;28;20389;-59
2021/10/24 03:18:21;;;;;;;19.70;10.50;;;3.10;99.90;;;;;;5050752;28;20828;-59
2021/10/24 03:20:47;;;;;;;15.68;8.70;;;3.10;99.90;;;;;;5049796;28;20473;-59
2021/10/24 03:23:13;;;;;;;17.30;10.23;;;3.10;99.90;;;;;;5050164;28;20868;-59
2021/10/24 03:25:39;;;;;;;18.88;9.93;;;2.90;99.90;;;;;;5049784;28;20392;-59
2021/10/24 03:28:04;;;;;;;14.63;9.00;;;2.90;99.90;;;;;;5050028;28;20417;-59
2021/10/24 03:30:30;;;;;;;17.40;10.10;;;4.30;99.90;;;;;;5049757;28;20464;-59
2021/10/24 03:32:57;;;;;;;17.95;9.57;;;4.10;99.90;;;;;;5049498;28;20396;-59
2021/10/24 03:35:22;;;;;;;17.80;8.98;;;3.80;99.90;;;;;;5049875;28;20834;-59
2021/10/24 03:37:48;;;;;;;19.02;9.10;;;2.70;99.90;;;;;;5047761;28;20496;-59
2021/10/24 03:40:14;;;;;;;17.90;9.07;;;2.70;99.90;;;;;;5049541;28;20421;-59
2021/10/24 03:42:40;;;;;;;17.20;8.80;;;2.60;99.90;;;;;;5049679;28;20394;-59
2021/10/24 03:45:06;;;;;;;16.00;8.80;;;2.70;99.90;;;;;;5049802;28;20439;-59
2021/10/24 03:47:32;;;;;;;16.63;8.47;;;2.60;99.90;;;;;;5049826;28;20436;-59
2021/10/24 03:49:57;;;;;;;17.92;8.52;;;2.60;99.90;;;;;;5048916;28;21194;-60
2021/10/24 03:52:23;;;;;;;15.77;8.95;;;2.60;99.90;;;;;;5049572;28;20459;-58
2021/10/24 03:54:49;;;;;;;13.50;8.53;;;2.60;99.90;;;;;;5048938;28;20377;-58
2021/10/24 03:57:14;;;;;;;12.05;7.50;;;2.60;99.90;;;;;;5049626;28;20388;-58
2021/10/24 03:59:40;;;;;;;17.77;8.75;;;2.60;99.90;;;;;;5049167;28;20381;-57
2021/10/24 04:02:06;;;;;;;13.40;8.30;;;3.60;99.90;;;;;;5049277;28;20468;-58
2021/10/24 04:04:32;;;;;;;17.45;8.40;;;4.10;99.90;;;;;;5048529;28;20476;-58
2021/10/24 04:06:58;;;;;;;17.35;8.27;;;2.60;99.90;;;;;;5048824;28;20521;-58
2021/10/24 04:09:24;;;;;;;16.92;8.88;;;3.90;99.90;;;;;;5049440;28;20409;-58
2021/10/24 04:11:50;;;;;;;15.48;8.80;;;2.70;99.90;;;;;;5048805;28;20492;-58
2021/10/24 04:14:17;;;;;;;16.80;8.98;;;2.60;99.90;;;;;;5049418;28;20857;-59
2021/10/24 04:16:43;;;;;;;15.07;8.50;;;2.50;99.90;;;;;;5048669;28;20385;-57
2021/10/24 04:19:08;;;;;;;15.83;8.70;;;2.50;99.90;;;;;;5049527;28;20530;-58
2021/10/24 04:21:34;;;;;;;18.63;9.25;;;2.70;99.90;;;;;;5048405;28;20873;-58
2021/10/24 04:24:00;;;;;;;19.73;9.68;;;4.00;99.90;;;;;;5048395;28;20447;-58
2021/10/24 04:26:26;;;;;;;19.40;9.87;;;2.80;99.90;;;;;;5049258;28;20404;-58
2021/10/24 04:28:52;;;;;;;16.42;8.50;;;2.80;99.90;;;;;;5048507;28;20380;-58
2021/10/24 04:31:19;;;;;;;16.00;9.30;;;2.70;99.90;;;;;;5049055;28;20408;-58
2021/10/24 04:33:45;;;;;;;15.48;9.02;;;2.70;99.90;;;;;;5047189;28;20721;-58
2021/10/24 04:36:11;;;;;;;20.17;9.93;;;2.70;99.90;;;;;;5049061;28;20381;-58
2021/10/24 04:38:36;;;;;;;16.70;8.60;;;2.70;99.90;;;;;;5049431;28;20491;-58
2021/10/24 04:41:02;;;;;;;18.40;9.00;;;2.60;99.90;;;;;;5048461;28;20389;-59
2021/10/24 04:43:28;;;;;;;16.70;8.93;;;2.60;99.90;;;;;;5050859;28;20389;-59
2021/10/24 04:45:55;;;;;;;15.95;8.93;;;2.70;99.90;;;;;;5052726;28;20845;-59
2021/10/24 04:48:20;;;;;;;16.40;9.20;;;2.80;99.90;;;;;;5053321;28;20385;-58
2021/10/24 04:50:46;;;;;;;17.77;9.23;;;2.70;99.90;;;;;;5052612;28;20439;-58
2021/10/24 04:53:12;;;;;;;16.48;8.45;;;2.70;99.90;;;;;;5053316;28;20471;-59
2021/10/24 04:55:38;;;;;;;18.25;8.80;;;3.80;99.90;;;;;;5053474;28;20741;-58
2021/10/24 04:58:04;;;;;;;14.98;8.02;;;3.90;99.90;;;;;;5052140;28;20435;-58
2021/10/24 05:00:31;;;;;;;15.27;7.90;;;2.50;99.90;;;;;;5052926;28;20377;-58
2021/10/24 05:02:59;;;;;;;14.48;8.10;;;2.50;99.90;;;;;;5052549;28;20442;-58
2021/10/24 05:05:25;;;;;;;16.55;8.00;;;2.30;99.90;;;;;;5052619;28;20789;-58
2021/10/24 05:07:51;;;;;;;17.90;8.63;;;2.20;99.90;;;;;;5052269;28;20397;-58
2021/10/24 05:10:17;;;;;;;15.90;8.53;;;2.10;99.90;;;;;;5052472;28;20409;-58
2021/10/24 05:12:42;;;;;;;13.25;7.75;;;2.30;99.90;;;;;;5052338;28;20431;-58
2021/10/24 05:15:09;;;;;;;16.05;8.35;;;2.20;99.90;;;;;;5052625;28;20382;-58
2021/10/24 05:17:34;;;;;;;16.90;8.95;;;2.20;99.90;;;;;;5052640;28;20471;-58
2021/10/24 05:20:00;;;;;;;17.80;8.00;;;2.30;99.90;;;;;;5050626;28;20428;-58
2021/10/24 05:22:26;;;;;;;17.08;8.85;;;2.50;99.90;;;;;;5051325;28;20474;-58
2021/10/24 05:24:51;;;;;;;15.55;8.35;;;2.40;99.90;;;;;;5051901;28;20843;-58
2021/10/24 05:27:17;;;;;;;17.50;8.90;;;3.00;99.90;;;;;;5052497;28;20384;-58
2021/10/24 05:29:43;;;;;;;16.17;9.07;;;2.40;99.90;;;;;;5052257;28;20400;-58
2021/10/24 05:32:08;;;;;;;16.95;8.60;;;3.60;99.90;;;;;;5052014;28;20416;-58
2021/10/24 05:34:35;;;;;;;16.87;9.30;;;2.30;99.90;;;;;;5052279;28;20733;-58
2021/10/24 05:37:00;;;;;;;16.25;8.60;;;2.40;99.90;;;;;;5051427;28;20452;-58
2021/10/24 05:39:26;;;;;;;16.33;8.70;;;2.30;99.90;;;;;;5052264;28;20869;-58
2021/10/24 05:41:52;;;;;;;15.98;7.90;;;2.30;99.90;;;;;;5051138;28;20796;-58
2021/10/24 05:44:19;;;;;;;17.13;8.85;;;2.20;99.90;;;;;;5052001;28;20381;-58
2021/10/24 05:46:46;;;;;;;15.25;8.15;;;2.20;99.90;;;;;;5048667;28;21246;-58
2021/10/24 05:49:12;;;;;;;18.00;8.80;;;2.20;99.90;;;;;;5041085;28;20436;-58
2021/10/24 05:51:39;;;;;;;19.35;9.20;;;2.70;99.90;;;;;;5068104;28;20779;-58
2021/10/24 05:54:04;;;;;;;18.33;8.95;;;0.80;99.90;;;;;;5048255;28;20390;-58
2021/10/24 05:56:30;;;;;;;18.05;8.85;;;2.20;99.90;;;;;;5048610;28;20387;-58
2021/10/24 05:58:56;;;;;;;16.98;8.45;;;2.60;99.90;;;;;;5030784;28;20382;-58
2021/10/24 06:01:22;;;;;;;19.47;8.60;;;2.20;99.90;;;;;;5031625;28;20429;-58
2021/10/24 06:03:47;;;;;;;18.53;8.60;;;2.20;99.90;;;;;;5030494;28;20429;-58
2021/10/24 06:06:13;;;;;;;18.38;8.80;;;2.30;99.90;;;;;;5044187;28;20389;-58
2021/10/24 06:08:38;;;;;;;17.20;8.17;;;2.30;99.90;;;;;;5051405;28;20394;-59
2021/10/24 06:11:17;;;;;;;16.88;8.50;;;2.30;99.90;;;;;;5045882;28;20471;-58
2021/10/24 06:13:44;;;;;;;15.20;8.20;;;3.30;99.90;;;;;;5047641;28;20401;-58
2021/10/24 06:16:11;;;;;;;13.80;7.68;;;2.30;99.90;;;;;;5035559;28;20492;-58
2021/10/24 06:18:38;;;;;;;16.38;7.70;;;2.80;99.90;;;;;;5047031;28;20402;-58
2021/10/24 06:21:04;;;;;;;16.08;8.10;;;2.20;99.90;;;;;;5040319;28;20756;-58
2021/10/24 06:23:30;;;;;;;14.80;8.37;;;2.30;99.90;;;;;;5047483;28;20556;-59
2021/10/24 06:25:56;;;;;;;14.90;8.20;;;2.40;99.90;;;;;;5048825;28;20468;-58
2021/10/24 06:28:22;;;;;;;13.68;7.70;;;2.70;99.90;;;;;;5045072;28;20445;-58
2021/10/24 06:30:47;;;;;;;17.08;7.72;;;2.80;99.90;;;;;;5046236;28;20381;-58
2021/10/24 06:33:14;;;;;;;13.27;7.50;;;2.50;99.90;;;;;;5048062;28;20427;-59
2021/10/24 06:35:39;;;;;;;14.07;7.30;;;2.70;99.90;;;;;;5048127;28;20388;-59
2021/10/24 06:38:05;;;;;;;15.85;8.07;;;2.80;99.90;;;;;;5043128;28;20743;-58
2021/10/24 06:40:31;;;;;;;13.70;7.57;;;4.40;99.90;;;;;;5043673;28;20407;-58
2021/10/24 06:42:56;;;;;;;16.57;7.40;;;3.10;99.90;;;;;;5030134;28;20933;-59
2021/10/24 06:45:24;;;;;;;15.05;6.88;;;3.60;99.90;;;;;;5029569;28;20403;-59
2021/10/24 06:47:50;;;;;;;12.80;7.40;;;4.00;99.90;;;;;;5029515;28;20411;-58
2021/10/24 06:50:16;;;;;;;13.97;6.93;;;4.30;99.90;;;;;;5029127;28;20411;-59
2021/10/24 06:52:41;;;;;;;15.20;8.32;;;6.00;99.90;;;;;;5031429;28;20415;-59
2021/10/24 06:55:07;;;;;;;12.47;6.37;;;4.60;99.90;;;;;;5041824;28;20872;-56
2021/10/24 06:57:53;;;;;;;12.77;6.40;;;5.30;99.90;;;;;;5044955;28;20933;-57
2021/10/24 07:00:21;;;;;;;10.90;5.57;;;6.50;99.90;;;;;;5036744;28;20457;-61
2021/10/24 07:02:50;;;;;;;11.80;5.47;;;7.70;99.90;;;;;;5029836;28;20445;-59
2021/10/24 07:05:16;;;;;;;10.77;5.47;;;8.70;99.90;;;;;;5038681;28;20971;-58
2021/10/24 07:07:43;;;;;;;10.73;5.65;;;10.20;99.90;;;;;;5047655;28;20397;-59
2021/10/24 07:10:10;;;;;;;11.47;5.90;;;12.10;99.90;;;;;;5029108;28;20530;-60
2021/10/24 07:12:36;;;;;;;10.20;5.43;;;14.10;99.90;;;;;;5032945;28;20411;-59
2021/10/24 07:15:04;;;;;;;11.13;9.50;;;15.60;95.80;;;;;;5032069;28;20412;-58
2021/10/24 07:17:30;;;;;;;12.85;11.48;;;16.90;91.40;;;;;;5033276;28;20407;-59
2021/10/24 07:19:56;;;;;;;12.50;11.30;;;18.00;83.10;;;;;;5029887;28;20395;-59
2021/10/24 07:22:22;;;;;;;13.60;12.30;;;18.30;76.20;;;;;;5033697;28;20398;-59
2021/10/24 07:24:47;;;;;;;17.20;11.80;;;18.40;75.50;;;;;;5031643;28;20387;-58
2021/10/24 07:27:13;;;;;;;14.80;11.93;;;18.40;72.70;;;;;;5029562;28;20422;-59
2021/10/24 07:29:39;;;;;;;11.30;10.15;;;18.60;71.90;;;;;;5032888;28;20830;-59
2021/10/24 07:32:06;;;;;;;15.50;12.65;;;18.30;71.90;;;;;;5034249;28;20409;-59
2021/10/24 07:34:32;;;;;;;12.02;7.40;;;19.10;69.50;;;;;;5032401;28;20492;-58
2021/10/24 07:36:57;;;;;;;16.45;14.75;;;19.10;67.70;;;;;;5030176;28;20884;-58
2021/10/24 07:39:23;;;;;;;14.63;9.87;;;18.40;69.50;;;;;;5029202;28;20407;-58
2021/10/24 07:41:49;;;;;;;15.87;11.20;;;18.90;67.70;;;;;;5030700;28;20434;-58
2021/10/24 07:44:15;;;;;;;60.10;37.97;;;19.90;63.90;;;;;;5033931;28;20963;-58
2021/10/24 07:46:41;;;;;;;41.05;28.23;;;21.10;61.20;;;;;;5045843;28;20381;-58
2021/10/24 07:49:07;;;;;;;21.33;17.13;;;21.00;60.80;;;;;;5047954;28;21060;-58
2021/10/24 07:51:33;;;;;;;15.82;14.30;;;20.20;62.60;;;;;;5047940;28;20864;-58
2021/10/24 07:54:01;;;;;;;13.95;8.68;;;20.30;63.20;;;;;;5047321;28;20468;-59
2021/10/24 07:56:27;;;;;;;14.25;11.40;;;21.30;61.20;;;;;;5048355;28;20886;-59
2021/10/24 07:58:53;;;;;;;12.63;7.30;;;22.60;57.20;;;;;;5046473;28;20893;-59
2021/10/24 08:01:19;;;;;;;13.37;9.00;;;22.60;56.40;;;;;;5048380;28;20745;-59
2021/10/24 08:03:46;;;;;;;13.43;12.02;;;20.90;58.40;;;;;;5047805;28;20377;-58
2021/10/24 08:06:12;;;;;;;12.80;11.50;;;20.90;58.90;;;;;;5046663;28;20482;-58
2021/10/24 08:08:38;;;;;;;15.70;11.80;;;20.60;59.60;;;;;;5046316;28;20761;-58
2021/10/24 08:11:05;;;;;;;15.07;13.43;;;21.20;58.10;;;;;;5048052;28;20431;-59
2021/10/24 08:13:31;;;;;;;14.65;12.90;;;21.50;57.40;;;;;;5047395;28;20400;-59
2021/10/24 08:15:57;;;;;;;13.80;12.30;;;20.80;58.70;;;;;;5047594;28;20378;-59
2021/10/24 08:18:23;;;;;;;12.40;7.93;;;21.30;58.50;;;;;;5046853;28;20891;-58
2021/10/24 08:20:48;;;;;;;12.53;11.20;;;21.60;58.50;;;;;;5046600;28;20685;-58
2021/10/24 08:23:18;;;;;;;12.47;9.43;;;22.00;57.90;;;;;;5047434;28;20467;-58
2021/10/24 08:25:44;;;;;;;12.25;10.32;;;21.80;58.10;;;;;;5045498;28;20512;-58
2021/10/24 08:28:10;;;;;;;11.50;8.70;;;21.80;58.30;;;;;;5047669;28;20950;-59
2021/10/24 08:30:36;;;;;;;14.60;11.38;;;22.50;56.30;;;;;;5048063;28;20438;-59
2021/10/24 08:33:02;;;;;;;13.80;11.02;;;22.60;54.70;;;;;;5047680;28;20475;-59
2021/10/24 08:35:31;;;;;;;21.63;13.00;;;21.60;56.60;;;;;;5043406;28;20402;-59
2021/10/24 08:37:56;;;;;;;15.70;14.00;;;22.10;55.70;;;;;;5047679;28;20722;-59
2021/10/24 08:40:22;;;;;;;13.68;12.23;;;21.40;56.90;;;;;;5048750;28;20396;-59
2021/10/24 08:42:53;;;;;;;13.67;12.27;;;21.00;57.70;;;;;;5047651;28;20385;-59
2021/10/24 08:45:19;;;;;;;12.57;11.07;;;20.70;58.20;;;;;;5046785;28;20859;-59
2021/10/24 08:47:45;;;;;;;12.07;10.77;;;20.90;57.60;;;;;;5048707;28;20451;-59
2021/10/24 08:50:12;;;;;;;11.30;9.60;;;21.10;57.10;;;;;;5045250;28;20455;-59
2021/10/24 08:52:39;;;;;;;11.25;10.10;;;20.70;56.40;;;;;;5047594;28;20435;-58
2021/10/24 08:55:08;;;;;;;11.13;9.93;;;20.40;57.30;;;;;;5046836;28;20941;-58
2021/10/24 08:57:35;;;;;;;12.15;10.85;;;20.10;57.60;;;;;;5042967;28;20708;-58
2021/10/24 09:00:03;;;;;;;12.20;10.13;;;20.50;56.50;;;;;;5036967;28;20413;-58
2021/10/24 09:03:01;;;;;;;14.32;11.30;;;21.00;56.40;;;;;;5039138;28;20897;-58
2021/10/24 09:05:33;;;;;;;13.02;11.00;;;20.80;56.30;;;;;;5040379;28;20467;-58
2021/10/24 09:08:00;;;;;;;12.50;9.27;;;20.60;56.70;;;;;;5037027;28;20413;-58
2021/10/24 09:10:42;;;;;;;13.30;10.80;;;20.70;55.80;;;;;;5040556;28;20516;-58
2021/10/24 09:13:10;;;;;;;13.57;10.20;;;20.80;56.30;;;;;;5040262;28;20397;-58
2021/10/24 09:15:52;;;;;;;12.00;10.27;;;21.00;56.50;;;;;;5042516;28;20407;-58
2021/10/24 09:18:20;;;;;;;11.45;10.30;;;21.10;56.60;;;;;;5036695;28;20392;-58
2021/10/24 09:20:47;;;;;;;11.75;10.00;;;21.50;57.10;;;;;;5034290;28;20406;-58
2021/10/24 09:23:15;;;;;;;12.90;10.52;;;22.00;55.80;;;;;;5033501;28;20397;-58
2021/10/24 09:25:51;;;;;;;12.80;10.55;;;21.50;54.90;;;;;;5034880;28;20485;-58
2021/10/24 09:28:20;;;;;;;13.45;10.63;;;21.30;56.10;;;;;;5034768;28;20922;-58
2021/10/24 09:30:47;;;;;;;11.95;10.70;;;21.30;55.90;;;;;;5067026;28;20395;-58
2021/10/24 09:33:14;;;;;;;18.40;13.30;;;21.30;56.80;;;;;;5033164;28;20918;-57
2021/10/24 09:35:42;;;;;;;20.92;15.30;;;21.50;56.20;;;;;;5039380;28;20401;-57
2021/10/24 09:38:16;;;;;;;17.90;13.15;;;22.10;54.70;;;;;;5046185;28;20497;-57
2021/10/24 09:40:48;;;;;;;15.63;12.97;;;22.30;55.10;;;;;;5047332;28;20409;-57
2021/10/24 09:43:20;;;;;;;13.30;11.90;;;22.30;54.50;;;;;;5035227;28;20407;-57
2021/10/24 09:45:49;;;;;;;15.50;12.10;;;22.20;54.40;;;;;;5032399;28;20407;-57
2021/10/24 09:48:18;;;;;;;12.27;10.97;;;21.50;55.50;;;;;;5035750;28;20406;-57
2021/10/24 09:50:48;;;;;;;11.48;10.32;;;20.80;56.30;;;;;;5035225;28;20524;-57
2021/10/24 09:53:23;;;;;;;13.50;11.30;;;21.10;56.10;;;;;;5038559;28;20666;-57
2021/10/24 09:55:54;;;;;;;14.07;11.23;;;21.00;56.20;;;;;;5039851;28;20407;-57
2021/10/24 09:58:22;;;;;;;11.38;10.02;;;21.50;55.50;;;;;;5036929;28;20410;-57
2021/10/24 10:00:47;;;;;;;14.32;10.60;;;21.10;56.00;;;;;;5045375;28;20395;-57
2021/10/24 10:03:18;;;;;;;14.07;10.98;;;21.40;56.00;;;;;;5047956;28;20923;-58
2021/10/24 10:05:44;;;;;;;13.93;11.07;;;22.20;54.60;;;;;;5046843;28;20896;-57
2021/10/24 10:08:11;;;;;;;11.77;10.57;;;22.50;54.00;;;;;;5039025;28;20411;-57
2021/10/24 10:11:01;;;;;;;11.48;9.88;;;22.20;54.60;;;;;;5043948;28;20411;-57
2021/10/24 10:13:29;;;;;;;11.48;9.32;;;21.70;54.20;;;;;;5038011;28;20424;-58
2021/10/24 10:16:05;;;;;;;12.10;9.75;;;21.90;53.70;;;;;;5040506;28;20399;-56
2021/10/24 10:18:56;;;;;;;10.65;9.43;;;21.70;53.20;;;;;;5033895;28;20438;-56
2021/10/24 10:21:30;;;;;;;11.77;9.60;;;21.30;54.10;;;;;;5039404;28;20421;-57
2021/10/24 10:23:56;;;;;;;10.77;9.50;;;20.80;54.80;;;;;;5036055;28;20755;-56
2021/10/24 10:26:54;;;;;;;11.10;8.88;;;21.20;55.40;;;;;;5043337;28;20403;-55
2021/10/24 10:29:50;;;;;;;12.32;9.30;;;21.00;54.10;;;;;;5036054;28;20949;-55
2021/10/24 10:32:18;;;;;;;11.23;9.30;;;20.20;55.80;;;;;;5072088;28;20702;-55
2021/10/24 10:34:56;;;;;;;11.97;9.40;;;20.80;55.70;;;;;;5044347;28;20856;-55
2021/10/24 10:37:40;;;;;;;12.18;9.30;;;21.00;55.00;;;;;;5049219;28;20671;-55
2021/10/24 10:40:13;;;;;;;11.55;8.93;;;21.20;55.30;;;;;;5048498;28;20409;-56
2021/10/24 10:42:42;;;;;;;10.25;9.07;;;20.30;55.40;;;;;;5049707;28;20421;-54
2021/10/24 10:45:40;;;;;;;14.02;9.15;;;20.00;55.60;;;;;;5034775;28;20399;-54
2021/10/24 10:48:22;;;;;;;13.30;9.30;;;20.00;56.10;;;;;;5033619;28;20405;-57
2021/10/24 10:50:54;;;;;;;11.07;9.35;;;20.90;55.20;;;;;;5033527;28;20379;-55
2021/10/24 10:53:45;;;;;;;10.55;8.82;;;21.10;54.60;;;;;;5040194;28;20498;-56
2021/10/24 10:56:11;;;;;;;10.80;8.80;;;20.30;54.00;;;;;;5032336;28;21215;-56
2021/10/24 10:58:38;;;;;;;9.70;8.17;;;21.10;55.40;;;;;;5039666;28;20450;-55
2021/10/24 11:01:21;;;;;;;11.65;8.90;;;21.10;54.60;;;;;;5037334;28;20402;-61
2021/10/24 11:03:56;;;;;;;10.27;8.40;;;20.50;55.60;;;;;;5033420;28;20446;-60
2021/10/24 11:06:31;;;;;;;10.68;8.30;;;20.60;55.30;;;;;;5036590;28;20391;-60
2021/10/24 11:08:58;;;;;;;9.65;7.90;;;20.10;55.10;;;;;;5032487;28;20423;-59
2021/10/24 11:11:37;;;;;;;11.70;8.25;;;19.60;56.60;;;;;;5043525;28;20426;-59
2021/10/24 11:14:32;;;;;;;9.80;8.80;;;19.60;56.10;;;;;;5033492;28;20887;-60
2021/10/24 11:16:59;;;;;;;9.80;8.52;;;18.90;57.00;;;;;;5044366;28;20485;-59
2021/10/24 11:19:36;;;;;;;9.63;8.40;;;18.30;57.60;;;;;;5044451;28;20421;-60
2021/10/24 11:22:11;;;;;;;11.77;9.30;;;17.80;58.40;;;;;;5047480;28;20399;-60
2021/10/24 11:24:40;;;;;;;10.70;9.00;;;17.40;60.90;;;;;;5047641;28;20417;-60
2021/10/24 11:27:15;;;;;;;12.47;8.83;;;17.00;61.50;;;;;;5048326;28;20416;-60
2021/10/24 11:29:48;;;;;;;10.40;8.10;;;16.60;62.60;;;;;;5035684;28;20385;-60
2021/10/24 11:32:26;;;;;;;10.85;8.00;;;16.80;62.20;;;;;;5045533;28;20428;-60
2021/10/24 11:34:56;;;;;;;9.98;7.90;;;16.90;61.60;;;;;;5033380;28;20405;-61
2021/10/24 11:37:35;;;;;;;8.80;7.90;;;17.00;63.30;;;;;;5037181;28;20466;-62
2021/10/24 11:40:06;;;;;;;11.02;8.55;;;16.60;61.40;;;;;;5033111;28;20395;-62
2021/10/24 11:42:33;;;;;;;12.93;8.88;;;16.50;64.90;;;;;;5033884;28;20418;-61
2021/10/24 11:44:59;;;;;;;12.70;7.25;;;16.70;65.30;;;;;;5030902;28;20433;-58
2021/10/24 11:47:24;;;;;;;9.18;7.43;;;17.10;64.20;;;;;;5037094;28;20875;-58
2021/10/24 11:49:53;;;;;;;10.00;9.00;;;17.10;62.10;;;;;;5038746;28;20386;-58
2021/10/24 11:52:31;;;;;;;10.43;7.60;;;17.00;62.70;;;;;;5049442;28;20505;-58
2021/10/24 11:55:04;;;;;;;9.98;7.00;;;16.80;62.60;;;;;;5033489;28;20463;-58
2021/10/24 12:00:17;;;;;;;8.80;6.10;;;17.00;63.10;;;;;;5037657;28;20426;-58
2021/10/24 12:03:00;;;;;;;9.50;6.10;;;17.10;65.00;;;;;;5037185;28;20433;-58
2021/10/24 12:05:31;;;;;;;9.75;7.38;;;17.00;66.50;;;;;;5041968;28;20908;-58
2021/10/24 12:08:01;;;;;;;10.30;7.60;;;17.20;65.30;;;;;;5033808;28;20395;-58
2021/10/24 12:10:49;;;;;;;9.68;6.55;;;17.00;63.50;;;;;;5035094;28;20910;-59
2021/10/24 12:13:34;;;;;;;10.00;6.90;;;17.20;64.00;;;;;;5031238;28;20969;-58
2021/10/24 12:16:00;;;;;;;11.00;6.70;;;17.40;64.40;;;;;;5028816;28;20430;-58
2021/10/24 12:18:29;;;;;;;9.73;7.60;;;17.70;64.50;;;;;;5032298;28;20391;-58
2021/10/24 12:20:57;;;;;;;8.90;6.80;;;17.70;63.00;;;;;;5030228;28;20380;-60
2021/10/24 12:23:36;;;;;;;9.40;6.30;;;18.40;63.00;;;;;;5035289;28;20381;-58
2021/10/24 12:26:07;;;;;;;10.60;7.88;;;17.60;62.90;;;;;;5029143;28;20379;-58
2021/10/24 12:28:40;;;;;;;9.63;6.87;;;17.70;65.10;;;;;;5035028;28;20379;-58
2021/10/24 12:31:21;;;;;;;10.23;6.57;;;17.70;64.20;;;;;;5050775;28;20420;-58
2021/10/24 12:33:47;;;;;;;8.60;6.23;;;17.70;64.30;;;;;;5028567;28;20758;-58
2021/10/24 12:36:30;;;;;;;10.10;6.85;;;17.80;63.90;;;;;;5045705;28;20387;-58
2021/10/24 12:38:59;;;;;;;10.75;6.65;;;17.70;62.70;;;;;;5047609;28;20886;-60
2021/10/24 12:41:39;;;;;;;9.52;6.38;;;17.50;63.80;;;;;;5037489;28;20907;-58
2021/10/24 12:44:06;;;;;;;10.05;7.68;;;17.60;65.10;;;;;;5035904;28;20379;-58
2021/10/24 12:46:34;;;;;;;8.70;6.28;;;17.70;65.40;;;;;;5047425;28;20410;-58
2021/10/24 12:49:18;;;;;;;9.60;6.70;;;17.80;64.20;;;;;;5032812;28;20449;-59